Time;durP1;ratioP1;P1;durP2;ratioP2;P2;SDS_P1;SDS_P2;PMS_P1;PMS_P2;Temp;Humidity;BMP_temperature;BMP_pressure;BME280_temperature;BME280_humidity;BME280_pressure;Samples;Min_cycle;Max_cycle;Signal;HPM_P1;HPM_P2
2024/03/30 00:00:45;;;;;;;;;24.00;17.25;;;;;;;;5051764;28;11645;-67
2024/03/30 00:03:11;;;;;;;;;22.50;20.00;;;;;;;;5051815;28;8781;-68
2024/03/30 00:05:36;;;;;;;;;28.00;18.75;;;;;;;;5051385;28;8867;-67
2024/03/30 00:08:01;;;;;;;;;25.75;16.00;;;;;;;;5051809;28;8935;-68
2024/03/30 00:10:26;;;;;;;;;23.00;15.25;;;;;;;;5051759;28;8866;-68
2024/03/30 00:12:54;;;;;;;;;31.75;16.75;;;;;;;;5046948;28;8850;-68
2024/03/30 00:15:19;;;;;;;;;25.00;20.00;;;;;;;;5047216;28;8807;-68
2024/03/30 00:17:45;;;;;;;;;31.25;15.25;;;;;;;;5046980;28;11533;-67
2024/03/30 00:20:10;;;;;;;;;19.75;15.75;;;;;;;;5031591;28;8795;-67
2024/03/30 00:22:35;;;;;;;;;20.75;16.25;;;;;;;;5031473;28;8820;-67
2024/03/30 00:25:00;;;;;;;;;20.00;16.25;;;;;;;;5031537;28;8830;-67
2024/03/30 00:27:26;;;;;;;;;21.25;16.25;;;;;;;;5031582;28;8791;-67
2024/03/30 00:29:51;;;;;;;;;26.25;19.00;;;;;;;;5031549;28;8800;-67
2024/03/30 00:32:16;;;;;;;;;25.00;18.00;;;;;;;;5031422;28;8799;-67
2024/03/30 00:34:42;;;;;;;;;29.00;21.00;;;;;;;;5046493;28;8875;-67
2024/03/30 00:37:07;;;;;;;;;23.75;16.25;;;;;;;;5051301;28;8820;-67
2024/03/30 00:39:32;;;;;;;;;29.00;20.00;;;;;;;;5051208;28;8777;-67
2024/03/30 00:41:57;;;;;;;;;21.00;19.00;;;;;;;;5051140;28;8785;-66
2024/03/30 00:44:23;;;;;;;;;28.25;19.75;;;;;;;;5051072;28;9562;-67
2024/03/30 00:46:48;;;;;;;;;28.50;19.50;;;;;;;;5051086;28;8792;-67
2024/03/30 00:49:13;;;;;;;;;29.00;19.75;;;;;;;;5050880;28;8774;-67
2024/03/30 00:51:38;;;;;;;;;26.50;22.25;;;;;;;;5051007;28;8888;-67
2024/03/30 00:54:04;;;;;;;;;37.00;25.50;;;;;;;;5050892;28;8838;-67
2024/03/30 00:56:30;;;;;;;;;30.75;22.00;;;;;;;;5050868;28;8835;-67
2024/03/30 00:58:56;;;;;;;;;28.75;22.75;;;;;;;;5049628;28;8785;-67
2024/03/30 01:01:22;;;;;;;;;27.50;22.00;;;;;;;;5049535;28;11506;-67
2024/03/30 01:03:47;;;;;;;;;32.00;22.25;;;;;;;;5050643;28;8899;-67
2024/03/30 01:06:12;;;;;;;;;36.50;23.25;;;;;;;;5050799;28;11670;-67
2024/03/30 01:08:38;;;;;;;;;25.25;20.00;;;;;;;;5050778;28;8839;-67
2024/03/30 01:11:04;;;;;;;;;31.50;19.50;;;;;;;;5050684;28;8811;-67
2024/03/30 01:13:29;;;;;;;;;29.75;21.25;;;;;;;;5050477;28;8899;-66
2024/03/30 01:15:55;;;;;;;;;25.75;19.00;;;;;;;;5050517;28;11569;-67
2024/03/30 01:18:20;;;;;;;;;30.50;21.75;;;;;;;;5048651;28;8800;-67
2024/03/30 01:20:46;;;;;;;;;31.50;23.25;;;;;;;;5050594;28;8788;-67
2024/03/30 01:23:11;;;;;;;;;28.75;21.25;;;;;;;;5050724;28;8793;-67
2024/03/30 01:25:37;;;;;;;;;33.50;22.25;;;;;;;;5050413;28;8801;-66
2024/03/30 01:28:06;;;;;;;;;29.50;20.50;;;;;;;;5050612;28;8870;-66
2024/03/30 01:30:31;;;;;;;;;37.75;28.00;;;;;;;;5050478;28;8777;-67
2024/03/30 01:32:56;;;;;;;;;35.50;22.75;;;;;;;;5050189;28;11515;-66
2024/03/30 01:35:22;;;;;;;;;30.75;20.25;;;;;;;;5050450;28;8807;-67
2024/03/30 01:37:47;;;;;;;;;28.50;22.25;;;;;;;;5050344;28;8832;-67
2024/03/30 01:40:12;;;;;;;;;27.25;19.50;;;;;;;;5050404;28;8781;-67
2024/03/30 01:42:38;;;;;;;;;31.50;25.75;;;;;;;;5050294;28;8786;-67
2024/03/30 01:45:04;;;;;;;;;28.00;19.75;;;;;;;;5050387;28;8809;-67
2024/03/30 01:47:30;;;;;;;;;32.00;23.50;;;;;;;;5048928;28;8813;-68
2024/03/30 01:49:56;;;;;;;;;29.75;20.00;;;;;;;;5050258;28;9531;-67
2024/03/30 01:52:23;;;;;;;;;27.25;18.50;;;;;;;;5048823;28;12324;-67
2024/03/30 01:54:49;;;;;;;;;25.50;19.50;;;;;;;;5050178;28;11527;-67
2024/03/30 01:57:15;;;;;;;;;33.75;21.50;;;;;;;;5048896;28;11624;-67
2024/03/30 01:59:41;;;;;;;;;27.50;20.50;;;;;;;;5050207;28;8808;-67
2024/03/30 02:02:10;;;;;;;;;22.75;19.00;;;;;;;;5049990;28;8915;-67
2024/03/30 02:04:35;;;;;;;;;30.00;20.25;;;;;;;;5050124;28;8860;-67
2024/03/30 02:07:01;;;;;;;;;26.25;19.75;;;;;;;;5050046;28;11525;-67
2024/03/30 02:09:26;;;;;;;;;22.75;17.50;;;;;;;;5050179;28;8812;-67
2024/03/30 02:11:52;;;;;;;;;29.50;18.50;;;;;;;;5049998;28;8777;-68
2024/03/30 02:14:17;;;;;;;;;28.75;19.75;;;;;;;;5048729;28;8882;-67
2024/03/30 02:16:42;;;;;;;;;30.00;19.75;;;;;;;;5049900;28;8916;-67
2024/03/30 02:19:08;;;;;;;;;26.25;17.00;;;;;;;;5050473;28;8777;-67
2024/03/30 02:21:34;;;;;;;;;29.00;17.00;;;;;;;;5048790;28;8809;-67
2024/03/30 02:23:59;;;;;;;;;28.00;18.50;;;;;;;;5048609;28;8817;-67
2024/03/30 02:26:25;;;;;;;;;24.25;20.75;;;;;;;;5050034;28;8809;-67
2024/03/30 02:28:51;;;;;;;;;29.00;21.25;;;;;;;;5051734;28;8878;-67
2024/03/30 02:31:17;;;;;;;;;25.75;22.00;;;;;;;;5053500;28;8816;-66
2024/03/30 02:33:42;;;;;;;;;27.00;18.00;;;;;;;;5053415;28;11507;-66
2024/03/30 02:36:08;;;;;;;;;28.25;18.50;;;;;;;;5053497;28;8821;-67
2024/03/30 02:38:34;;;;;;;;;29.75;19.50;;;;;;;;5053449;28;8869;-66
2024/03/30 02:40:59;;;;;;;;;23.75;19.25;;;;;;;;5053587;28;11534;-66
2024/03/30 02:43:24;;;;;;;;;24.25;19.75;;;;;;;;5053476;28;8792;-66
2024/03/30 02:45:50;;;;;;;;;22.75;19.00;;;;;;;;5053143;28;8833;-66
2024/03/30 02:48:15;;;;;;;;;21.25;17.50;;;;;;;;5053399;28;8978;-66
2024/03/30 02:50:41;;;;;;;;;25.50;16.75;;;;;;;;5053272;28;8919;-67
2024/03/30 02:53:06;;;;;;;;;23.00;16.75;;;;;;;;5053159;28;8902;-67
2024/03/30 02:55:31;;;;;;;;;27.25;19.00;;;;;;;;5053088;28;8894;-67
2024/03/30 02:57:56;;;;;;;;;23.50;17.75;;;;;;;;5051786;28;8831;-67
2024/03/30 03:00:22;;;;;;;;;25.25;23.25;;;;;;;;5052964;28;8790;-67
2024/03/30 03:02:47;;;;;;;;;27.50;21.00;;;;;;;;5053191;28;8927;-67
2024/03/30 03:05:12;;;;;;;;;23.75;18.75;;;;;;;;5052922;28;8820;-67
2024/03/30 03:07:38;;;;;;;;;27.00;19.75;;;;;;;;5052887;28;8931;-67
2024/03/30 03:10:03;;;;;;;;;36.75;20.25;;;;;;;;5052908;28;8785;-67
2024/03/30 03:12:30;;;;;;;;;30.25;22.50;;;;;;;;5052581;28;8823;-67
2024/03/30 03:14:56;;;;;;;;;20.75;18.25;;;;;;;;5052739;28;8824;-67
2024/03/30 03:17:21;;;;;;;;;28.75;19.00;;;;;;;;5052719;28;11527;-67
2024/03/30 03:19:46;;;;;;;;;32.50;22.25;;;;;;;;5053158;28;8789;-67
2024/03/30 03:22:11;;;;;;;;;36.50;28.25;;;;;;;;5052561;28;8769;-67
2024/03/30 03:24:37;;;;;;;;;24.00;19.25;;;;;;;;5052527;28;8816;-67
2024/03/30 03:27:03;;;;;;;;;30.00;19.25;;;;;;;;5052580;28;8784;-67
2024/03/30 03:29:28;;;;;;;;;25.00;18.00;;;;;;;;5052446;28;11635;-67
2024/03/30 03:31:53;;;;;;;;;33.25;19.25;;;;;;;;5050841;28;8809;-67
2024/03/30 03:34:19;;;;;;;;;28.50;23.00;;;;;;;;5052436;28;8967;-67
2024/03/30 03:36:44;;;;;;;;;26.50;21.00;;;;;;;;5050988;28;9484;-67
2024/03/30 03:39:09;;;;;;;;;17.50;13.25;;;;;;;;5052414;28;8820;-67
2024/03/30 03:41:34;;;;;;;;;27.75;20.75;;;;;;;;5051741;28;8774;-67
2024/03/30 03:44:00;;;;;;;;;27.75;22.75;;;;;;;;5052164;28;8807;-67
2024/03/30 03:46:25;;;;;;;;;27.25;22.75;;;;;;;;5052175;28;8797;-66
2024/03/30 03:48:51;;;;;;;;;30.75;23.25;;;;;;;;5052226;28;8820;-66
2024/03/30 03:51:16;;;;;;;;;29.75;19.75;;;;;;;;5052165;28;8785;-67
2024/03/30 03:53:41;;;;;;;;;24.00;19.00;;;;;;;;5052130;28;8777;-67
2024/03/30 03:56:07;;;;;;;;;30.50;22.75;;;;;;;;5052064;28;8869;-67
2024/03/30 03:58:32;;;;;;;;;24.75;19.50;;;;;;;;5052309;28;9586;-67
2024/03/30 04:01:02;;;;;;;;;26.25;20.00;;;;;;;;5051914;28;8804;-67
2024/03/30 04:03:27;;;;;;;;;25.00;19.50;;;;;;;;5051937;28;8890;-67
2024/03/30 04:05:52;;;;;;;;;25.50;19.25;;;;;;;;5051700;28;12407;-67
2024/03/30 04:08:18;;;;;;;;;26.75;25.00;;;;;;;;5052032;28;8773;-67
2024/03/30 04:10:43;;;;;;;;;28.75;21.75;;;;;;;;5051788;28;8777;-67
2024/03/30 04:13:08;;;;;;;;;30.50;19.50;;;;;;;;5051629;28;8839;-67
2024/03/30 04:15:35;;;;;;;;;31.75;17.00;;;;;;;;5051614;28;9600;-67
2024/03/30 04:18:00;;;;;;;;;10.00;2.00;;;;;;;;5051892;28;8769;-67
2024/03/30 04:20:26;;;;;;;;;24.00;17.75;;;;;;;;5052070;28;11493;-67
2024/03/30 04:22:51;;;;;;;;;20.00;16.75;;;;;;;;5051623;28;8781;-67
2024/03/30 04:25:16;;;;;;;;;30.75;17.50;;;;;;;;5050209;28;8832;-67
2024/03/30 04:27:42;;;;;;;;;30.00;21.50;;;;;;;;5051510;28;8812;-67
2024/03/30 04:30:07;;;;;;;;;27.50;19.25;;;;;;;;5051329;28;8831;-67
2024/03/30 04:32:32;;;;;;;;;30.00;21.25;;;;;;;;5051498;28;8789;-67
2024/03/30 04:34:58;;;;;;;;;24.75;17.50;;;;;;;;5051560;28;8862;-67
2024/03/30 09:32:24;;;;;;;;;10.50;9.00;;;;;;;;5104748;27;13426;-70
2024/03/30 09:34:50;;;;;;;;;12.33;6.33;;;;;;;;5046626;28;10305;-69
2024/03/30 09:37:15;;;;;;;;;17.67;9.67;;;;;;;;5047501;28;8905;-67
2024/03/30 09:39:40;;;;;;;;;13.00;10.67;;;;;;;;5047690;28;8814;-68
2024/03/30 09:42:11;;;;;;;;;16.00;11.67;;;;;;;;5047666;28;8816;-68
2024/03/30 09:44:37;;;;;;;;;16.75;12.00;;;;;;;;5046690;28;8914;-71
2024/03/30 09:47:03;;;;;;;;;15.33;10.00;;;;;;;;5045158;28;8934;-72
2024/03/30 09:49:31;;;;;;;;;13.67;9.67;;;;;;;;5046410;28;8823;-70
2024/03/30 09:51:56;;;;;;;;;18.33;11.67;;;;;;;;5046898;28;8862;-73
2024/03/30 09:54:23;;;;;;;;;14.33;9.33;;;;;;;;5047173;28;8990;-73
2024/03/30 09:56:49;;;;;;;;;13.75;9.00;;;;;;;;5047287;28;8906;-76
2024/03/30 09:59:15;;;;;;;;;16.67;10.00;;;;;;;;5046834;28;8811;-74
2024/03/30 10:01:40;;;;;;;;;12.33;9.67;;;;;;;;5047055;28;10945;-70
2024/03/30 10:04:05;;;;;;;;;12.67;8.33;;;;;;;;5047154;28;11454;-72
2024/03/30 10:06:36;;;;;;;;;14.33;9.33;;;;;;;;5047175;28;8788;-81
2024/03/30 10:09:05;;;;;;;;;11.67;8.67;;;;;;;;5047192;28;8806;-77
2024/03/30 10:11:31;;;;;;;;;21.00;10.33;;;;;;;;5045721;28;9198;-76
2024/03/30 10:14:04;;;;;;;;;12.67;9.33;;;;;;;;5046696;28;9068;-72
2024/03/30 10:16:30;;;;;;;;;11.33;10.00;;;;;;;;5046931;28;9920;-72
2024/03/30 10:18:57;;;;;;;;;12.33;8.33;;;;;;;;5066766;28;9233;-73
2024/03/30 10:21:22;;;;;;;;;14.00;7.00;;;;;;;;5065150;28;8809;-72
2024/03/30 10:23:47;;;;;;;;;17.67;10.00;;;;;;;;5046153;28;9064;-68
2024/03/30 10:26:17;;;;;;;;;19.67;11.00;;;;;;;;5046328;28;8812;-72
2024/03/30 10:28:42;;;;;;;;;14.00;12.00;;;;;;;;5046493;28;8818;-74
2024/03/30 10:31:07;;;;;;;;;21.00;14.00;;;;;;;;5046467;28;9224;-74
2024/03/30 10:33:33;;;;;;;;;13.00;9.67;;;;;;;;5045669;28;8885;-72
2024/03/30 10:35:59;;;;;;;;;16.67;10.00;;;;;;;;5046353;28;8839;-73
2024/03/30 10:38:26;;;;;;;;;18.00;8.00;;;;;;;;5046485;28;11048;-72
2024/03/30 10:40:53;;;;;;;;;20.00;13.67;;;;;;;;5045067;28;8859;-71
2024/03/30 10:43:19;;;;;;;;;16.67;13.33;;;;;;;;5033393;28;9472;-71
2024/03/30 10:45:46;;;;;;;;;18.00;11.67;;;;;;;;5032767;28;9207;-78
2024/03/30 10:48:11;;;;;;;;;22.33;14.00;;;;;;;;5033067;28;9653;-72
2024/03/30 10:50:36;;;;;;;;;17.00;11.67;;;;;;;;5029904;28;9589;-70
2024/03/30 10:53:07;;;;;;;;;15.33;10.00;;;;;;;;4997326;28;8823;-70
2024/03/30 10:55:39;;;;;;;;;16.00;15.50;;;;;;;;5054503;28;8788;-71
2024/03/30 10:58:05;;;;;;;;;21.25;16.25;;;;;;;;5032199;28;9643;-71
2024/03/30 11:00:31;;;;;;;;;22.50;13.25;;;;;;;;5032308;28;9674;-71
2024/03/30 11:02:57;;;;;;;;;17.00;14.00;;;;;;;;5030586;28;8804;-70
2024/03/30 11:05:23;;;;;;;;;15.33;11.67;;;;;;;;5032248;28;8834;-70
2024/03/30 11:07:50;;;;;;;;;16.00;13.50;;;;;;;;5032311;28;9111;-69
2024/03/30 11:10:15;;;;;;;;;18.33;10.67;;;;;;;;5032392;28;9534;-68
2024/03/30 11:12:41;;;;;;;;;19.75;11.75;;;;;;;;5029994;28;9415;-70
2024/03/30 11:15:06;;;;;;;;;23.00;12.00;;;;;;;;5030556;28;8808;-68
2024/03/30 11:17:31;;;;;;;;;16.67;10.33;;;;;;;;5032277;28;8795;-69
2024/03/30 11:20:07;;;;;;;;;15.00;9.00;;;;;;;;5032165;28;8792;-69
2024/03/30 11:22:42;;;;;;;;;13.00;8.25;;;;;;;;5030330;28;8792;-72
2024/03/30 11:25:12;;;;;;;;;12.67;9.33;;;;;;;;5032043;28;9421;-71
2024/03/30 11:27:46;;;;;;;;;12.00;6.00;;;;;;;;5009288;28;9826;-71
2024/03/30 11:30:18;;;;;;;;;11.00;6.00;;;;;;;;5012186;28;9949;-72
2024/03/30 11:32:45;;;;;;;;;14.00;7.00;;;;;;;;5022640;28;9236;-71
2024/03/30 11:35:13;;;;;;;;;10.67;6.67;;;;;;;;5032147;28;9191;-71
2024/03/30 11:37:40;;;;;;;;;11.33;7.33;;;;;;;;5031517;28;10052;-71
2024/03/30 11:40:06;;;;;;;;;10.67;8.00;;;;;;;;5032106;28;9179;-71
2024/03/30 11:42:31;;;;;;;;;13.33;9.00;;;;;;;;5029967;28;9210;-71
2024/03/30 11:44:57;;;;;;;;;11.33;7.33;;;;;;;;5030918;28;8815;-71
2024/03/30 11:47:22;;;;;;;;;13.33;9.33;;;;;;;;5031615;28;8811;-71
2024/03/30 11:49:47;;;;;;;;;8.33;6.00;;;;;;;;5031929;28;8796;-71
2024/03/30 11:52:14;;;;;;;;;10.67;9.33;;;;;;;;5030023;28;8854;-71
2024/03/30 11:54:44;;;;;;;;;12.33;8.33;;;;;;;;5030854;28;8804;-73
2024/03/30 11:57:13;;;;;;;;;11.00;9.33;;;;;;;;5027320;28;9461;-71
2024/03/30 11:59:42;;;;;;;;;12.00;7.33;;;;;;;;5030291;28;9480;-68
2024/03/30 12:02:12;;;;;;;;;12.00;7.33;;;;;;;;5021034;28;9242;-70
2024/03/30 12:04:38;;;;;;;;;13.00;9.67;;;;;;;;5031350;28;9294;-70
2024/03/30 12:07:07;;;;;;;;;12.67;7.67;;;;;;;;5028849;28;9303;-71
2024/03/30 12:09:32;;;;;;;;;9.67;8.33;;;;;;;;5029661;28;9238;-72
2024/03/30 12:12:16;;;;;;;;;12.67;7.00;;;;;;;;5031096;28;9397;-71
2024/03/30 12:14:42;;;;;;;;;10.67;8.00;;;;;;;;5030051;28;9560;-70
2024/03/30 12:17:07;;;;;;;;;13.25;10.75;;;;;;;;5028572;28;9344;-71
2024/03/30 12:19:37;;;;;;;;;16.67;7.00;;;;;;;;5028518;28;8807;-72
2024/03/30 12:22:02;;;;;;;;;11.33;8.33;;;;;;;;5030148;28;8811;-71
2024/03/30 12:24:27;;;;;;;;;11.67;7.67;;;;;;;;5031140;28;9349;-71
2024/03/30 12:26:53;;;;;;;;;16.33;8.67;;;;;;;;5043839;28;8789;-72
2024/03/30 12:29:18;;;;;;;;;9.00;7.00;;;;;;;;5038370;28;8788;-70
2024/03/30 12:31:44;;;;;;;;;8.00;3.67;;;;;;;;5030054;28;8815;-70
2024/03/30 12:34:09;;;;;;;;;6.33;5.00;;;;;;;;5031091;28;8784;-71
2024/03/30 12:36:35;;;;;;;;;8.00;5.00;;;;;;;;5030475;28;8845;-69
2024/03/30 12:39:00;;;;;;;;;12.33;7.67;;;;;;;;5029228;28;8898;-74
2024/03/30 12:41:28;;;;;;;;;7.33;3.00;;;;;;;;5029683;28;8831;-67
2024/03/30 12:44:03;;;;;;;;;9.33;6.00;;;;;;;;5030510;28;8804;-67
2024/03/30 12:46:29;;;;;;;;;14.00;9.67;;;;;;;;5030249;28;9265;-73
2024/03/30 12:49:01;;;;;;;;;10.67;7.00;;;;;;;;5027892;28;9311;-67
2024/03/30 12:51:26;;;;;;;;;8.00;3.00;;;;;;;;4994434;28;12286;-66
2024/03/30 12:53:53;;;;;;;;;10.33;4.67;;;;;;;;5049548;28;9217;-78
2024/03/30 12:56:21;;;;;;;;;5.33;3.00;;;;;;;;5050486;28;8821;-78
2024/03/30 12:58:47;;;;;;;;;9.00;2.33;;;;;;;;5048448;28;9276;-77
2024/03/30 13:01:12;;;;;;;;;18.00;5.00;;;;;;;;5029687;28;9366;-67
2024/03/30 13:03:38;;;;;;;;;8.75;5.00;;;;;;;;5030652;28;8801;-68
2024/03/30 13:06:04;;;;;;;;;5.50;2.50;;;;;;;;5030391;28;9615;-67
2024/03/30 13:08:29;;;;;;;;;12.00;5.75;;;;;;;;5014487;28;9555;-68
2024/03/30 13:10:54;;;;;;;;;10.25;4.25;;;;;;;;5022873;28;8868;-68
2024/03/30 13:13:19;;;;;;;;;10.25;5.00;;;;;;;;5018475;28;8825;-67
2024/03/30 13:15:45;;;;;;;;;2.25;1.50;;;;;;;;5028481;28;9555;-67
2024/03/30 13:18:11;;;;;;;;;9.25;3.75;;;;;;;;5028806;28;8831;-67
2024/03/30 13:20:40;;;;;;;;;11.50;3.75;;;;;;;;5043031;28;8807;-67
2024/03/30 13:23:05;;;;;;;;;10.50;2.75;;;;;;;;5049209;28;10460;-67
2024/03/30 13:25:31;;;;;;;;;9.75;5.25;;;;;;;;5028141;28;9664;-67
2024/03/30 13:27:56;;;;;;;;;15.00;4.00;;;;;;;;5029375;28;8781;-67
2024/03/30 13:30:21;;;;;;;;;4.50;2.00;;;;;;;;5027911;28;8946;-67
2024/03/30 13:32:47;;;;;;;;;10.00;2.50;;;;;;;;5029390;28;8801;-67
2024/03/30 13:35:12;;;;;;;;;12.25;3.75;;;;;;;;5026021;28;8841;-67
2024/03/30 13:37:44;;;;;;;;;10.00;4.50;;;;;;;;5028414;28;8806;-67
2024/03/30 13:40:09;;;;;;;;;9.25;3.75;;;;;;;;5028803;28;8794;-67
2024/03/30 13:42:34;;;;;;;;;14.33;5.00;;;;;;;;5028802;28;10126;-66
2024/03/30 13:45:00;;;;;;;;;8.00;3.00;;;;;;;;5029758;28;8797;-67
2024/03/30 13:47:25;;;;;;;;;11.75;4.00;;;;;;;;5029750;28;8821;-67
2024/03/30 13:49:51;;;;;;;;;10.75;5.75;;;;;;;;5028006;28;9014;-68
2024/03/30 13:52:16;;;;;;;;;4.50;4.50;;;;;;;;5029378;28;8860;-67
2024/03/30 13:54:44;;;;;;;;;10.00;2.00;;;;;;;;5029870;28;8794;-68
2024/03/30 13:57:12;;;;;;;;;7.33;2.67;;;;;;;;5030020;28;9496;-69
2024/03/30 13:59:38;;;;;;;;;5.25;3.25;;;;;;;;5028829;28;9531;-67
2024/03/30 14:02:03;;;;;;;;;8.00;4.25;;;;;;;;5029494;28;9874;-71
2024/03/30 14:04:28;;;;;;;;;12.25;4.25;;;;;;;;5029960;28;8820;-70
2024/03/30 14:06:54;;;;;;;;;6.00;3.50;;;;;;;;5030011;28;8925;-70
2024/03/30 14:09:21;;;;;;;;;8.75;2.75;;;;;;;;5028702;28;8789;-70
2024/03/30 14:11:48;;;;;;;;;5.75;3.50;;;;;;;;5029362;28;9609;-70
2024/03/30 14:14:13;;;;;;;;;10.00;5.00;;;;;;;;5028620;28;10259;-69
2024/03/30 14:16:40;;;;;;;;;11.50;2.00;;;;;;;;5029793;28;9661;-70
2024/03/30 14:19:05;;;;;;;;;10.00;5.00;;;;;;;;5032199;28;8810;-70
2024/03/30 14:21:30;;;;;;;;;4.75;3.25;;;;;;;;5032917;28;9789;-70
2024/03/30 14:23:56;;;;;;;;;3.75;3.00;;;;;;;;5033142;28;8801;-66
2024/03/30 14:26:21;;;;;;;;;5.75;3.25;;;;;;;;5032131;28;8789;-67
2024/03/30 14:28:46;;;;;;;;;10.00;4.00;;;;;;;;5031289;28;8920;-68
2024/03/30 14:31:12;;;;;;;;;9.50;6.25;;;;;;;;5031368;28;8837;-73
2024/03/30 14:33:38;;;;;;;;;9.25;3.50;;;;;;;;5033391;28;9519;-77
2024/03/30 14:36:05;;;;;;;;;4.25;2.50;;;;;;;;5033338;28;9816;-73
2024/03/30 14:38:30;;;;;;;;;5.00;2.75;;;;;;;;5032904;28;8824;-71
2024/03/30 14:40:55;;;;;;;;;1.75;0.00;;;;;;;;5031026;28;9586;-70
2024/03/30 14:43:20;;;;;;;;;8.50;3.50;;;;;;;;5033238;28;8793;-71
2024/03/30 14:45:46;;;;;;;;;9.75;4.25;;;;;;;;5033201;28;8789;-72
2024/03/30 14:48:11;;;;;;;;;3.50;3.00;;;;;;;;5033181;28;9109;-72
2024/03/30 14:50:37;;;;;;;;;2.50;1.75;;;;;;;;5031402;28;8845;-69
2024/03/30 14:53:03;;;;;;;;;7.00;3.00;;;;;;;;5032372;28;8841;-70
2024/03/30 14:55:28;;;;;;;;;6.00;1.25;;;;;;;;5032737;28;9554;-69
2024/03/30 14:57:53;;;;;;;;;5.75;2.75;;;;;;;;5032794;28;11557;-70
2024/03/30 15:00:19;;;;;;;;;10.25;3.25;;;;;;;;5030985;28;8806;-68
2024/03/30 15:02:44;;;;;;;;;8.00;2.00;;;;;;;;5032331;28;8805;-67
2024/03/30 15:05:09;;;;;;;;;9.25;2.25;;;;;;;;5032417;28;8813;-68
2024/03/30 15:07:35;;;;;;;;;9.00;2.50;;;;;;;;5032807;28;8798;-70
2024/03/30 15:10:00;;;;;;;;;5.00;3.25;;;;;;;;5032619;28;8867;-66
2024/03/30 15:12:26;;;;;;;;;12.75;4.00;;;;;;;;5030500;28;8821;-67
2024/03/30 15:14:51;;;;;;;;;8.00;3.50;;;;;;;;5031353;28;8943;-64
2024/03/30 15:17:17;;;;;;;;;4.25;3.50;;;;;;;;5032157;28;8930;-65
2024/03/30 15:19:44;;;;;;;;;6.00;4.00;;;;;;;;5032261;28;8817;-65
2024/03/30 15:22:09;;;;;;;;;9.00;4.50;;;;;;;;5032101;28;8848;-66
2024/03/30 15:24:34;;;;;;;;;4.50;3.00;;;;;;;;5032173;28;9805;-66
2024/03/30 15:27:01;;;;;;;;;8.50;4.25;;;;;;;;5029936;28;8821;-66
2024/03/30 15:29:26;;;;;;;;;9.00;2.25;;;;;;;;5031772;28;9779;-67
2024/03/30 15:32:15;;;;;;;;;6.50;5.50;;;;;;;;5032267;28;9880;-70
2024/03/30 15:34:40;;;;;;;;;9.00;3.25;;;;;;;;5032244;28;9512;-73
2024/03/30 15:37:05;;;;;;;;;6.75;4.50;;;;;;;;5032165;28;9914;-66
2024/03/30 15:39:31;;;;;;;;;7.75;3.00;;;;;;;;5032116;28;9631;-65
2024/03/30 15:41:56;;;;;;;;;5.75;4.00;;;;;;;;5030290;28;9633;-65
2024/03/30 15:44:28;;;;;;;;;9.75;5.00;;;;;;;;5031782;28;8829;-65
2024/03/30 15:46:53;;;;;;;;;10.50;6.00;;;;;;;;5031679;28;9581;-65
2024/03/30 15:49:19;;;;;;;;;10.00;7.00;;;;;;;;5031366;28;10077;-65
2024/03/30 15:51:44;;;;;;;;;13.50;6.00;;;;;;;;5046855;28;8948;-63
2024/03/30 15:54:10;;;;;;;;;4.75;3.25;;;;;;;;5031612;28;8900;-64
2024/03/30 15:56:35;;;;;;;;;12.50;8.75;;;;;;;;5031088;28;8813;-63
2024/03/30 15:59:00;;;;;;;;;6.75;4.25;;;;;;;;5031028;28;8863;-63
2024/03/30 16:01:26;;;;;;;;;10.50;3.25;;;;;;;;5026763;28;8873;-63
2024/03/30 16:03:52;;;;;;;;;9.00;4.75;;;;;;;;5022455;28;8927;-65
2024/03/30 16:06:17;;;;;;;;;11.75;4.00;;;;;;;;5020181;28;10123;-66
2024/03/30 16:08:42;;;;;;;;;7.50;2.75;;;;;;;;5014971;28;8820;-67
2024/03/30 16:11:08;;;;;;;;;7.75;3.50;;;;;;;;5026428;28;8809;-68
2024/03/30 16:13:33;;;;;;;;;8.50;3.50;;;;;;;;5029415;28;8797;-66
2024/03/30 16:15:59;;;;;;;;;6.75;3.00;;;;;;;;5030226;28;9547;-66
2024/03/30 16:18:24;;;;;;;;;11.50;3.00;;;;;;;;5030573;28;8786;-67
2024/03/30 16:20:53;;;;;;;;;9.50;4.00;;;;;;;;5029012;28;8928;-68
2024/03/30 16:23:19;;;;;;;;;9.50;5.50;;;;;;;;5030369;28;9572;-67
2024/03/30 16:25:44;;;;;;;;;8.75;3.50;;;;;;;;5030104;28;10484;-67
2024/03/30 16:28:09;;;;;;;;;8.50;3.25;;;;;;;;5029809;28;8837;-67
2024/03/30 16:30:34;;;;;;;;;9.00;4.25;;;;;;;;5027613;28;8856;-67
2024/03/30 16:33:00;;;;;;;;;9.75;5.00;;;;;;;;5028010;28;8839;-67
2024/03/30 16:35:25;;;;;;;;;9.00;4.00;;;;;;;;5030393;28;8801;-70
2024/03/30 16:37:51;;;;;;;;;7.25;4.00;;;;;;;;5029616;28;9698;-67
2024/03/30 16:40:16;;;;;;;;;9.50;4.00;;;;;;;;5026574;28;9622;-66
2024/03/30 16:42:41;;;;;;;;;12.50;4.50;;;;;;;;5029604;28;8935;-66
2024/03/30 16:45:07;;;;;;;;;9.25;3.50;;;;;;;;5030413;28;8854;-65
2024/03/30 16:47:42;;;;;;;;;8.50;4.25;;;;;;;;5030510;28;8773;-67
2024/03/30 16:50:08;;;;;;;;;8.25;4.00;;;;;;;;5028143;28;11482;-65
2024/03/30 16:52:33;;;;;;;;;7.50;4.50;;;;;;;;5030365;28;10611;-66
2024/03/30 16:54:58;;;;;;;;;10.75;4.00;;;;;;;;5030600;28;9590;-66
2024/03/30 16:57:23;;;;;;;;;7.75;4.50;;;;;;;;5030641;28;8777;-66
2024/03/30 16:59:49;;;;;;;;;10.50;4.50;;;;;;;;5047931;28;8819;-66
2024/03/30 17:02:15;;;;;;;;;8.75;5.25;;;;;;;;5048363;28;8823;-66
2024/03/30 17:04:40;;;;;;;;;12.25;5.50;;;;;;;;5050426;28;10269;-66
2024/03/30 17:07:05;;;;;;;;;11.50;6.75;;;;;;;;5050555;28;9095;-66
2024/03/30 17:09:30;;;;;;;;;9.50;4.00;;;;;;;;5048792;28;8849;-66
2024/03/30 17:11:56;;;;;;;;;6.25;5.75;;;;;;;;5045703;28;8814;-66
2024/03/30 17:14:22;;;;;;;;;18.25;6.75;;;;;;;;5045717;28;8820;-66
2024/03/30 17:16:48;;;;;;;;;15.50;8.00;;;;;;;;5030346;28;8786;-65
2024/03/30 17:19:14;;;;;;;;;8.00;4.75;;;;;;;;5029976;28;10481;-66
2024/03/30 17:21:39;;;;;;;;;12.25;8.25;;;;;;;;5027973;28;10546;-66
2024/03/30 17:24:05;;;;;;;;;6.50;6.50;;;;;;;;5030305;28;8809;-67
2024/03/30 17:26:30;;;;;;;;;13.50;8.25;;;;;;;;5030256;28;8782;-67
2024/03/30 17:28:56;;;;;;;;;10.00;9.50;;;;;;;;5030178;28;11533;-66
2024/03/30 17:31:21;;;;;;;;;9.75;7.50;;;;;;;;5039303;28;8839;-67
2024/03/30 17:33:49;;;;;;;;;8.75;7.00;;;;;;;;5050093;28;8893;-65
2024/03/30 17:36:15;;;;;;;;;9.00;6.50;;;;;;;;5050082;28;8832;-67
2024/03/30 17:38:40;;;;;;;;;14.00;5.50;;;;;;;;5050014;28;10663;-66
2024/03/30 17:41:05;;;;;;;;;8.75;6.75;;;;;;;;5044673;28;10707;-66
2024/03/30 17:43:37;;;;;;;;;7.50;5.00;;;;;;;;5035421;28;8790;-66
2024/03/30 17:46:03;;;;;;;;;8.75;4.50;;;;;;;;5030382;28;8816;-67
2024/03/30 17:48:28;;;;;;;;;13.25;9.25;;;;;;;;5030204;28;10706;-65
2024/03/30 17:51:06;;;;;;;;;12.75;4.50;;;;;;;;5027606;28;10909;-65
2024/03/30 17:53:38;;;;;;;;;8.50;5.00;;;;;;;;5032843;28;8797;-67
2024/03/30 17:56:04;;;;;;;;;8.50;2.50;;;;;;;;5034056;28;10876;-66
2024/03/30 17:58:30;;;;;;;;;19.00;6.00;;;;;;;;5032711;28;10763;-67
2024/03/30 18:01:06;;;;;;;;;6.50;2.50;;;;;;;;5035637;28;11167;-67
2024/03/30 18:03:31;;;;;;;;;7.25;3.75;;;;;;;;5034344;28;8786;-67
2024/03/30 18:05:56;;;;;;;;;7.75;6.00;;;;;;;;5033889;28;10989;-68
2024/03/30 18:08:22;;;;;;;;;12.50;6.00;;;;;;;;5033851;28;8979;-68
2024/03/30 18:10:56;;;;;;;;;11.75;6.75;;;;;;;;5031087;28;8860;-69
2024/03/30 18:13:22;;;;;;;;;11.75;3.00;;;;;;;;5032443;28;8982;-67
2024/03/30 18:15:48;;;;;;;;;8.25;4.00;;;;;;;;5032071;28;10644;-68
2024/03/30 18:18:14;;;;;;;;;32.00;28.25;;;;;;;;5033112;28;8797;-66
2024/03/30 18:20:43;;;;;;;;;9.25;7.00;;;;;;;;5038435;28;11460;-67
2024/03/30 18:23:09;;;;;;;;;21.75;16.50;;;;;;;;5053648;28;8771;-73
2024/03/30 18:25:36;;;;;;;;;32.25;23.50;;;;;;;;5034296;28;10929;-71
2024/03/30 18:28:02;;;;;;;;;14.75;8.00;;;;;;;;5033561;28;8870;-72
2024/03/30 18:30:27;;;;;;;;;13.25;6.50;;;;;;;;5030018;28;10527;-72
2024/03/30 18:32:52;;;;;;;;;8.75;4.00;;;;;;;;5032429;28;8810;-72
2024/03/30 18:35:17;;;;;;;;;9.50;3.75;;;;;;;;5020835;28;8803;-70
2024/03/30 18:37:43;;;;;;;;;14.00;6.75;;;;;;;;5029009;28;8932;-69
2024/03/30 18:40:08;;;;;;;;;9.00;4.25;;;;;;;;5030540;28;8847;-70
2024/03/30 18:42:34;;;;;;;;;8.75;5.25;;;;;;;;5032908;28;8811;-67
2024/03/30 18:44:59;;;;;;;;;10.25;7.00;;;;;;;;5029034;28;8865;-66
2024/03/30 18:47:25;;;;;;;;;17.75;7.50;;;;;;;;5032825;28;8931;-67
2024/03/30 18:49:50;;;;;;;;;13.75;5.50;;;;;;;;5032324;28;8797;-70
2024/03/30 18:52:16;;;;;;;;;5.75;4.00;;;;;;;;5029480;28;10359;-66
2024/03/30 18:54:41;;;;;;;;;8.50;5.50;;;;;;;;5032167;28;8798;-67
2024/03/30 18:57:06;;;;;;;;;8.25;7.50;;;;;;;;5032846;28;8790;-66
2024/03/30 18:59:32;;;;;;;;;10.50;3.25;;;;;;;;5031734;28;9597;-67
2024/03/30 19:01:57;;;;;;;;;10.75;3.75;;;;;;;;5030465;28;8801;-68
2024/03/30 19:04:22;;;;;;;;;7.25;3.75;;;;;;;;5031360;28;8808;-67
2024/03/30 19:06:47;;;;;;;;;12.50;8.00;;;;;;;;5032000;28;8789;-67
2024/03/30 19:09:13;;;;;;;;;12.25;6.50;;;;;;;;5029709;28;8801;-66
2024/03/30 19:11:38;;;;;;;;;6.75;4.25;;;;;;;;5030371;28;8817;-69
2024/03/30 19:14:03;;;;;;;;;16.25;7.00;;;;;;;;5038433;28;8815;-68
2024/03/30 19:16:29;;;;;;;;;11.75;8.00;;;;;;;;5021428;28;8784;-67
2024/03/30 19:18:54;;;;;;;;;15.75;8.50;;;;;;;;5015098;28;8802;-68
2024/03/30 19:21:19;;;;;;;;;17.50;11.75;;;;;;;;5028256;28;8944;-68
2024/03/30 19:23:45;;;;;;;;;14.50;13.00;;;;;;;;5032026;28;8831;-68
2024/03/30 19:26:10;;;;;;;;;18.75;12.00;;;;;;;;5032311;28;8793;-70
2024/03/30 19:28:35;;;;;;;;;12.00;8.50;;;;;;;;5032352;28;8797;-69